createdAt,value
2017-07-25T00:00:07.249Z,17.82
2017-07-25T00:02:39.208Z,17.79
2017-07-25T00:05:10.933Z,17.74
2017-07-25T00:07:42.957Z,17.61
2017-07-25T00:10:15.522Z,17.66
2017-07-25T00:12:47.064Z,17.64
2017-07-25T00:15:18.489Z,17.62
2017-07-25T00:17:50.660Z,17.62
2017-07-25T00:20:22.301Z,17.58
2017-07-25T00:22:53.827Z,17.49
2017-07-25T00:25:25.714Z,17.45
2017-07-25T00:27:57.196Z,17.45
2017-07-25T00:30:28.660Z,17.44
2017-07-25T00:33:01.673Z,17.44
2017-07-25T00:35:33.762Z,17.44
2017-07-25T00:38:08.620Z,17.39
2017-07-25T00:40:42.644Z,17.40
2017-07-25T00:43:16.290Z,17.37
2017-07-25T00:45:50.853Z,17.34
2017-07-25T00:48:27.908Z,17.37
2017-07-25T00:51:02.244Z,17.35
2017-07-25T00:53:35.795Z,17.34
2017-07-25T00:56:10.971Z,17.37
2017-07-25T00:58:44.165Z,17.37
2017-07-25T01:01:18.130Z,17.38
2017-07-25T01:03:52.397Z,17.38
2017-07-25T01:06:27.418Z,17.40
2017-07-25T01:11:43.798Z,17.39
2017-07-25T01:14:17.153Z,17.31
2017-07-25T01:16:50.759Z,17.24
2017-07-25T01:21:56.966Z,17.24
2017-07-25T01:24:30.002Z,17.17
2017-07-25T01:27:02.845Z,17.15
2017-07-25T01:29:36.802Z,17.11
2017-07-25T01:32:10.335Z,17.01
2017-07-25T01:34:43.156Z,16.94
2017-07-25T01:37:15.805Z,16.87
2017-07-25T01:39:48.575Z,16.81
2017-07-25T01:42:21.846Z,16.85
2017-07-25T01:44:54.728Z,16.87
2017-07-25T01:47:27.608Z,16.87
2017-07-25T01:50:00.925Z,16.86
2017-07-25T01:52:32.885Z,16.85
2017-07-25T01:55:05.305Z,16.82
2017-07-25T01:57:36.754Z,16.76
2017-07-25T02:00:08.571Z,16.65
2017-07-25T02:02:40.055Z,16.64
2017-07-25T02:05:11.818Z,16.63
2017-07-25T02:07:43.343Z,16.62
2017-07-25T02:10:15.025Z,16.60
2017-07-25T02:12:47.144Z,16.55
2017-07-25T02:15:18.638Z,16.52
2017-07-25T02:17:50.030Z,16.47
2017-07-25T02:20:22.049Z,16.44
2017-07-25T02:22:53.442Z,16.40
2017-07-25T02:25:24.839Z,16.42
2017-07-25T02:27:56.707Z,16.45
2017-07-25T02:30:28.128Z,16.52
2017-07-25T02:32:59.613Z,16.51
2017-07-25T02:35:31.009Z,16.59
2017-07-25T02:38:07.381Z,16.60
2017-07-25T02:40:39.219Z,16.60
2017-07-25T02:43:10.932Z,16.65
2017-07-25T02:45:42.365Z,16.64
2017-07-25T02:48:14.646Z,16.70
2017-07-25T02:50:46.571Z,16.73
2017-07-25T02:53:18.060Z,16.72
2017-07-25T02:55:49.532Z,16.72
2017-07-25T02:58:21.387Z,16.75
2017-07-25T03:00:52.880Z,16.78
2017-07-25T03:03:24.292Z,16.78
2017-07-25T03:05:55.701Z,16.80
2017-07-25T03:08:27.243Z,16.80
2017-07-25T03:12:28.254Z,16.84
2017-07-25T03:14:59.995Z,16.88
2017-07-25T03:17:34.653Z,16.92
2017-07-25T03:20:06.822Z,16.82
2017-07-25T03:22:38.759Z,16.86
2017-07-25T03:25:10.662Z,16.84
2017-07-25T03:27:42.095Z,16.67
2017-07-25T03:30:13.629Z,16.64
2017-07-25T03:35:17.805Z,16.61
2017-07-25T03:37:49.543Z,16.59
2017-07-25T03:40:21.402Z,16.62
2017-07-25T03:42:52.802Z,16.70
2017-07-25T03:45:24.361Z,16.73
2017-07-25T03:47:55.743Z,16.73
2017-07-25T03:50:27.117Z,16.75
2017-07-25T03:52:58.517Z,16.72
2017-07-25T03:55:30.389Z,16.79
2017-07-25T03:58:02.384Z,16.77
2017-07-25T04:00:34.147Z,16.82
2017-07-25T04:03:05.538Z,16.85
2017-07-25T04:05:36.909Z,16.92
2017-07-25T04:08:08.620Z,16.94
2017-07-25T04:10:40.039Z,16.98
2017-07-25T04:13:11.575Z,17.00
2017-07-25T04:15:43.356Z,17.05
2017-07-25T04:18:14.897Z,17.02
2017-07-25T04:20:46.305Z,16.96
2017-07-25T04:23:18.339Z,16.98
2017-07-25T04:25:49.913Z,17.03
2017-07-25T04:28:21.551Z,17.03
2017-07-25T04:30:53.436Z,16.97
2017-07-25T04:33:24.869Z,17.01
2017-07-25T04:35:56.580Z,16.96
2017-07-25T04:38:27.944Z,16.85
2017-07-25T04:40:59.301Z,16.79
2017-07-25T04:43:31.102Z,16.89
2017-07-25T04:46:03.280Z,16.99
2017-07-25T04:48:34.681Z,16.99
2017-07-25T04:51:06.596Z,17.01
2017-07-25T04:53:38.061Z,17.01
2017-07-25T04:56:09.661Z,17.10
2017-07-25T04:58:41.593Z,17.04
2017-07-25T05:01:13.211Z,17.16
2017-07-25T05:03:44.713Z,17.26
2017-07-25T05:06:16.456Z,17.47
2017-07-25T05:08:48.090Z,17.56
2017-07-25T05:11:19.684Z,17.44
2017-07-25T05:13:51.200Z,17.46
2017-07-25T05:16:22.617Z,17.37
2017-07-25T05:18:54.172Z,17.36
2017-07-25T05:21:25.581Z,17.48
2017-07-25T05:23:57.431Z,17.46
2017-07-25T05:26:28.801Z,17.55
2017-07-25T05:29:00.386Z,17.50
2017-07-25T05:31:31.709Z,17.56
2017-07-25T05:34:03.858Z,17.63
2017-07-25T05:36:35.840Z,17.51
2017-07-25T05:39:07.270Z,17.52
2017-07-25T05:41:39.082Z,17.66
2017-07-25T05:44:11.476Z,17.69
2017-07-25T05:46:43.302Z,17.41
2017-07-25T05:49:14.642Z,17.52
2017-07-25T05:51:47.052Z,17.62
2017-07-25T05:54:24.109Z,17.70
2017-07-25T05:56:55.859Z,17.67
2017-07-25T05:59:27.288Z,17.78
2017-07-25T06:01:58.838Z,17.72
2017-07-25T06:04:30.561Z,17.75
2017-07-25T06:07:01.930Z,17.90
2017-07-25T06:09:33.663Z,17.93
2017-07-25T06:12:06.102Z,17.94
2017-07-25T06:14:37.592Z,17.94
2017-07-25T06:17:09.310Z,18.02
2017-07-25T06:19:40.766Z,18.05
2017-07-25T06:22:12.248Z,18.13
2017-07-25T06:24:44.139Z,18.25
2017-07-25T06:27:17.119Z,18.39
2017-07-25T06:29:48.877Z,18.51
2017-07-25T06:32:20.262Z,18.60
2017-07-25T06:34:51.653Z,18.61
2017-07-25T06:37:23.570Z,18.81
2017-07-25T06:39:55.022Z,18.96
2017-07-25T06:42:26.717Z,19.23
2017-07-25T06:44:58.146Z,19.36
2017-07-25T06:47:29.600Z,19.35
2017-07-25T06:50:01.851Z,19.23
2017-07-25T06:55:07.386Z,19.15
2017-07-25T06:57:38.841Z,19.23
2017-07-25T07:00:12.782Z,19.12
2017-07-25T07:02:46.120Z,19.06
2017-07-25T07:08:14.976Z,18.94
2017-07-25T07:13:41.341Z,18.92
2017-07-25T07:16:13.388Z,19.01
2017-07-25T07:18:44.777Z,19.02
2017-07-25T07:21:18.167Z,18.66
2017-07-25T07:23:49.605Z,18.44
2017-07-25T07:26:21.121Z,18.30
2017-07-25T07:28:52.519Z,18.32
2017-07-25T07:31:24.377Z,18.31
2017-07-25T07:33:55.863Z,18.07
2017-07-25T07:36:27.291Z,18.02
2017-07-25T07:38:58.787Z,17.88
2017-07-25T07:41:30.239Z,17.58
2017-07-25T07:44:01.708Z,17.46
2017-07-25T07:46:33.673Z,17.42
2017-07-25T07:49:05.140Z,17.24
2017-07-25T07:51:36.614Z,17.14
2017-07-25T07:54:10.516Z,17.23
2017-07-25T07:56:42.560Z,17.31
2017-07-25T08:02:10.210Z,17.24
2017-07-25T08:04:41.700Z,17.36
2017-07-25T08:07:13.450Z,17.32
2017-07-25T08:09:44.878Z,17.40
2017-07-25T08:12:18.102Z,17.47
2017-07-25T08:14:53.499Z,17.52
2017-07-25T08:17:28.291Z,17.66
2017-07-25T08:20:05.436Z,17.79
2017-07-25T08:22:37.461Z,17.94
2017-07-25T08:25:14.041Z,17.95
2017-07-25T08:27:45.756Z,18.05
2017-07-25T08:30:19.192Z,18.27
2017-07-25T08:32:50.988Z,18.27
2017-07-25T08:35:27.970Z,18.23
2017-07-25T08:38:09.394Z,18.34
2017-07-25T08:40:41.215Z,18.50
2017-07-25T08:43:15.027Z,18.50
2017-07-25T08:45:48.481Z,18.54
2017-07-25T08:48:24.304Z,18.72
2017-07-25T08:53:52.266Z,18.87
2017-07-25T08:56:23.887Z,18.90
2017-07-25T08:58:56.150Z,18.99
2017-07-25T09:01:27.658Z,18.89
2017-07-25T09:03:59.563Z,18.92
2017-07-25T09:06:30.984Z,18.89
2017-07-25T09:09:02.411Z,18.80
2017-07-25T09:11:34.270Z,18.85
2017-07-25T09:14:08.924Z,18.97
2017-07-25T09:16:41.516Z,18.93
2017-07-25T09:19:16.105Z,19.04
2017-07-25T09:22:03.807Z,19.22
2017-07-25T09:24:37.280Z,19.21
2017-07-25T09:27:09.080Z,18.94
2017-07-25T09:29:41.368Z,18.97
2017-07-25T09:32:14.995Z,19.12
2017-07-25T09:34:47.630Z,19.31
2017-07-25T09:37:19.170Z,19.21
2017-07-25T09:39:50.762Z,19.02
2017-07-25T09:42:23.258Z,18.96
2017-07-25T09:44:54.991Z,18.91
2017-07-25T09:47:26.951Z,18.90
2017-07-25T09:49:58.957Z,18.92
2017-07-25T09:52:30.564Z,18.86
2017-07-25T09:55:04.130Z,18.88
2017-07-25T09:57:43.726Z,18.67
2017-07-25T10:00:16.329Z,18.76
2017-07-25T10:02:48.522Z,18.98
2017-07-25T10:05:20.661Z,19.01
2017-07-25T10:07:52.803Z,19.13
2017-07-25T10:10:38.382Z,18.98
2017-07-25T10:13:11.959Z,18.96
2017-07-25T10:15:44.109Z,19.00
2017-07-25T10:18:23.493Z,18.85
2017-07-25T10:20:59.940Z,18.58
2017-07-25T10:23:43.843Z,18.75
2017-07-25T10:26:19.267Z,18.72
2017-07-25T10:28:52.267Z,18.76
2017-07-25T10:31:24.795Z,18.70
2017-07-25T10:33:56.596Z,18.90
2017-07-25T10:36:28.778Z,18.94
2017-07-25T10:39:00.648Z,19.07
2017-07-25T10:41:32.489Z,18.76
2017-07-25T10:44:12.027Z,18.63
2017-07-25T10:46:46.995Z,18.67
2017-07-25T10:49:19.614Z,18.76
2017-07-25T10:51:53.923Z,18.72
2017-07-25T10:57:22.440Z,19.00
2017-07-25T11:02:42.959Z,18.69
2017-07-25T11:05:17.011Z,18.73
2017-07-25T11:07:52.821Z,18.94
2017-07-25T11:10:29.080Z,18.54
2017-07-25T11:13:02.630Z,18.62
2017-07-25T11:15:34.440Z,18.30
2017-07-25T11:18:07.231Z,18.55
2017-07-25T11:20:39.392Z,18.69
2017-07-25T11:23:11.091Z,18.48
2017-07-25T11:25:42.796Z,18.50
2017-07-25T11:28:21.573Z,18.55
2017-07-25T11:30:55.167Z,18.69
2017-07-25T11:33:29.521Z,18.69
2017-07-25T11:36:11.584Z,18.49
2017-07-25T11:38:46.807Z,18.45
2017-07-25T11:41:21.856Z,18.03
2017-07-25T11:43:53.929Z,17.86
2017-07-25T11:46:25.794Z,17.85
2017-07-25T11:52:05.446Z,17.95
2017-07-25T11:54:49.409Z,18.13
2017-07-25T11:57:25.814Z,18.32
2017-07-25T12:00:09.207Z,18.43
2017-07-25T12:02:50.712Z,18.65
2017-07-25T12:05:38.056Z,18.68
2017-07-25T12:08:30.783Z,18.74
2017-07-25T12:14:01.905Z,18.70
2017-07-25T12:16:57.525Z,18.83
2017-07-25T12:19:38.072Z,19.02
2017-07-25T12:28:11.033Z,19.17
2017-07-25T12:30:43.294Z,19.43
2017-07-25T12:33:16.047Z,19.44
2017-07-25T12:35:47.530Z,19.74
2017-07-25T12:38:21.447Z,19.72
2017-07-25T12:40:54.243Z,19.96
2017-07-25T12:43:26.824Z,19.87
2017-07-25T12:45:58.840Z,19.98
2017-07-25T12:48:31.969Z,20.41
2017-07-25T12:51:05.134Z,20.65
2017-07-25T12:53:36.667Z,20.84
2017-07-25T12:56:14.604Z,21.05
2017-07-25T12:58:47.720Z,21.15
2017-07-25T13:01:28.974Z,21.65
2017-07-25T13:04:00.806Z,20.87
2017-07-25T13:06:32.470Z,20.75
2017-07-25T13:09:05.640Z,20.56
2017-07-25T13:11:37.114Z,20.00
2017-07-25T13:14:17.159Z,19.77
2017-07-25T13:16:48.972Z,19.77
2017-07-25T13:19:20.583Z,20.10
2017-07-25T13:21:52.081Z,20.19
2017-07-25T13:24:24.301Z,20.42
2017-07-25T13:26:55.861Z,20.56
2017-07-25T13:29:28.369Z,20.58
2017-07-25T13:32:00.611Z,20.46
2017-07-25T13:34:32.389Z,20.45
2017-07-25T13:37:04.291Z,20.39
2017-07-25T13:39:36.534Z,20.24
2017-07-25T13:42:09.196Z,20.10
2017-07-25T13:44:41.806Z,19.97
2017-07-25T13:47:13.805Z,19.98
2017-07-25T13:49:46.052Z,19.63
2017-07-25T13:52:20.376Z,19.42
2017-07-25T13:54:52.692Z,19.13
2017-07-25T13:57:25.738Z,18.95
2017-07-25T14:00:00.139Z,18.79
2017-07-25T14:02:36.617Z,18.77
2017-07-25T14:05:14.709Z,18.75
2017-07-25T14:07:53.651Z,18.91
2017-07-25T14:13:21.611Z,19.37
2017-07-25T14:15:53.945Z,19.22
2017-07-25T14:18:26.186Z,19.38
2017-07-25T14:20:59.737Z,19.59
2017-07-25T14:23:32.209Z,19.61
2017-07-25T14:26:06.104Z,19.67
2017-07-25T14:28:38.339Z,19.64
2017-07-25T14:31:11.295Z,19.55
2017-07-25T14:33:44.830Z,19.67
2017-07-25T14:36:16.835Z,19.64
2017-07-25T14:38:48.503Z,19.46
2017-07-25T14:41:23.534Z,19.40
2017-07-25T14:43:55.977Z,19.48
2017-07-25T14:46:28.562Z,19.30
2017-07-25T14:54:37.039Z,19.51
2017-07-25T14:57:09.656Z,19.31
2017-07-25T14:59:41.255Z,19.22
2017-07-25T15:02:13.370Z,19.22
2017-07-25T15:04:45.104Z,19.16
2017-07-25T15:07:17.242Z,19.14
2017-07-25T15:09:48.959Z,19.07
2017-07-25T15:12:20.405Z,18.96
2017-07-25T15:14:52.468Z,19.03
2017-07-25T15:17:23.938Z,19.07
2017-07-25T15:19:55.626Z,19.12
2017-07-25T15:22:27.701Z,19.29
2017-07-25T15:24:59.173Z,19.41
2017-07-25T15:27:30.850Z,19.50
2017-07-25T15:30:03.978Z,19.55
2017-07-25T15:32:35.360Z,19.65
2017-07-25T15:35:07.828Z,19.72
2017-07-25T15:37:39.187Z,19.77
2017-07-25T15:40:10.853Z,19.77
2017-07-25T15:42:42.616Z,19.63
2017-07-25T15:45:14.128Z,19.45
2017-07-25T15:47:45.965Z,19.36
2017-07-25T15:50:17.499Z,19.28
2017-07-25T15:52:48.920Z,19.18
2017-07-25T15:55:20.530Z,19.12
2017-07-25T15:57:52.172Z,19.15
2017-07-25T16:00:24.134Z,19.02
2017-07-25T16:02:55.611Z,18.90
2017-07-25T16:05:27.038Z,18.86
2017-07-25T16:07:59.226Z,18.87
2017-07-25T16:10:30.781Z,18.84
2017-07-25T16:13:02.501Z,18.86
2017-07-25T16:15:34.206Z,18.80
2017-07-25T16:18:07.215Z,18.77
2017-07-25T16:20:39.113Z,18.86
2017-07-25T16:23:10.505Z,18.72
2017-07-25T16:25:42.148Z,18.77
2017-07-25T16:28:14.212Z,18.61
2017-07-25T16:30:45.674Z,18.58
2017-07-25T16:33:17.110Z,18.47
2017-07-25T16:35:50.192Z,18.44
2017-07-25T16:38:21.624Z,18.21
2017-07-25T16:40:53.040Z,18.06
2017-07-25T16:43:24.995Z,17.97
2017-07-25T16:45:56.385Z,18.06
2017-07-25T16:48:28.158Z,18.05
2017-07-25T16:50:59.549Z,18.01
2017-07-25T16:53:31.033Z,17.96
2017-07-25T16:56:03.418Z,17.98
2017-07-25T16:58:35.050Z,17.95
2017-07-25T17:01:06.870Z,17.91
2017-07-25T17:03:38.410Z,17.93
2017-07-25T17:06:09.969Z,17.92
2017-07-25T17:08:41.601Z,17.84
2017-07-25T17:11:13.001Z,17.93
2017-07-25T17:13:44.893Z,18.00
2017-07-25T17:16:16.404Z,18.01
2017-07-25T17:18:48.106Z,18.02
2017-07-25T17:21:19.873Z,17.91
2017-07-25T17:23:51.279Z,17.94
2017-07-25T17:26:22.722Z,17.95
2017-07-25T17:28:54.585Z,17.98
2017-07-25T17:31:26.076Z,17.98
2017-07-25T17:33:57.559Z,17.87
2017-07-25T17:36:29.395Z,17.78
2017-07-25T17:39:00.841Z,17.86
2017-07-25T17:41:32.521Z,17.86
2017-07-25T17:44:04.646Z,17.70
2017-07-25T17:46:36.271Z,17.72
2017-07-25T17:49:08.068Z,17.68
2017-07-25T17:51:39.530Z,17.64
2017-07-25T17:54:11.075Z,17.66
2017-07-25T17:56:43.221Z,17.59
2017-07-25T17:59:14.694Z,17.49
2017-07-25T18:01:46.120Z,17.54
2017-07-25T18:04:18.791Z,17.50
2017-07-25T18:06:50.741Z,17.54
2017-07-25T18:09:22.865Z,17.54
2017-07-25T18:11:54.368Z,17.55
2017-07-25T18:14:26.120Z,17.51
2017-07-25T18:16:58.744Z,17.46
2017-07-25T18:19:31.243Z,17.38
2017-07-25T18:22:04.900Z,17.45
2017-07-25T18:24:37.263Z,17.47
2017-07-25T18:27:09.265Z,17.46
2017-07-25T18:29:40.654Z,17.37
2017-07-25T18:32:12.425Z,17.38
2017-07-25T18:34:44.084Z,17.41
2017-07-25T18:37:16.050Z,17.44
2017-07-25T18:39:48.569Z,17.37
2017-07-25T18:42:20.829Z,17.39
2017-07-25T18:44:52.853Z,17.41
2017-07-25T18:47:24.283Z,17.42
2017-07-25T18:49:56.255Z,17.39
2017-07-25T18:52:27.829Z,17.44
2017-07-25T18:54:59.636Z,17.38
2017-07-25T18:57:31.118Z,17.32
2017-07-25T19:00:03.421Z,17.28
2017-07-25T19:02:35.350Z,17.33
2017-07-25T19:05:06.900Z,17.30
2017-07-25T19:07:38.465Z,17.31
2017-07-25T19:10:09.892Z,17.28
2017-07-25T19:12:41.722Z,17.28
2017-07-25T19:15:13.110Z,17.25
2017-07-25T19:17:44.475Z,17.25
2017-07-25T19:20:16.253Z,17.23
2017-07-25T19:22:48.232Z,17.23
2017-07-25T19:25:19.849Z,17.23
2017-07-25T19:27:51.865Z,17.24
2017-07-25T19:30:23.436Z,17.26
2017-07-25T19:32:54.991Z,17.18
2017-07-25T19:35:26.756Z,17.22
2017-07-25T19:37:58.301Z,17.21
2017-07-25T19:40:29.765Z,17.17
2017-07-25T19:43:01.816Z,17.16
2017-07-25T19:45:33.458Z,17.15
2017-07-25T19:48:21.663Z,17.18
2017-07-25T19:53:21.804Z,17.15
2017-07-25T19:55:55.099Z,17.14
2017-07-25T19:58:30.042Z,17.09
2017-07-25T20:01:03.064Z,17.10
2017-07-25T20:03:34.848Z,17.10
2017-07-25T20:06:13.436Z,17.13
2017-07-25T20:08:52.747Z,17.16
2017-07-25T20:11:31.763Z,17.12
2017-07-25T20:16:59.649Z,17.01
2017-07-25T20:19:34.208Z,16.95
2017-07-25T20:22:06.530Z,17.01
2017-07-25T20:24:38.220Z,17.03
2017-07-25T20:27:09.659Z,17.03
2017-07-25T20:29:41.109Z,17.03
2017-07-25T20:32:12.628Z,16.98
2017-07-25T20:34:45.374Z,16.94
2017-07-25T20:37:16.799Z,16.96
2017-07-25T20:39:48.179Z,16.88
2017-07-25T20:42:19.628Z,16.87
2017-07-25T20:44:51.001Z,16.83
2017-07-25T20:47:22.358Z,16.83
2017-07-25T20:49:53.887Z,16.81
2017-07-25T20:52:25.314Z,16.82
2017-07-25T20:54:56.769Z,16.84
2017-07-25T20:57:28.215Z,16.87
2017-07-25T20:59:59.795Z,16.91
2017-07-25T21:02:31.303Z,16.83
2017-07-25T21:05:03.102Z,16.79
2017-07-25T21:07:34.632Z,16.78
2017-07-25T21:10:06.087Z,16.79
2017-07-25T21:12:37.589Z,16.83
2017-07-25T21:15:09.982Z,16.79
2017-07-25T21:17:41.540Z,16.71
2017-07-25T21:20:13.283Z,16.70
2017-07-25T21:22:45.737Z,16.72
2017-07-25T21:25:17.468Z,16.73
2017-07-25T21:27:48.977Z,16.63
2017-07-25T21:30:20.850Z,16.68
2017-07-25T21:32:52.638Z,16.73
2017-07-25T21:35:24.375Z,16.72
2017-07-25T21:37:56.041Z,16.75
2017-07-25T21:40:27.997Z,16.76
2017-07-25T21:42:59.414Z,16.72
2017-07-25T21:45:30.780Z,16.73
2017-07-25T21:48:02.648Z,16.78
2017-07-25T21:50:34.034Z,16.77
2017-07-25T21:53:05.820Z,16.80
2017-07-25T21:55:37.153Z,16.77
2017-07-25T21:58:10.403Z,16.76
2017-07-25T22:00:43.647Z,16.83
2017-07-25T22:05:22.377Z,16.84
2017-07-25T22:10:49.294Z,16.85
2017-07-25T22:13:20.784Z,16.74
2017-07-25T22:15:52.384Z,16.80
2017-07-25T22:18:26.348Z,16.79
2017-07-25T22:20:59.491Z,16.83
2017-07-25T22:26:26.295Z,16.87
2017-07-25T22:28:57.863Z,16.87
2017-07-25T22:31:29.283Z,16.83
2017-07-25T22:34:04.880Z,16.88
2017-07-25T22:36:36.400Z,16.90
2017-07-25T22:39:07.832Z,16.90
2017-07-25T22:41:39.302Z,16.94
2017-07-25T22:44:12.241Z,16.92
2017-07-25T22:46:43.837Z,16.94
2017-07-25T22:49:15.397Z,16.94
2017-07-25T22:51:47.057Z,16.94
2017-07-25T22:54:18.545Z,17.03
2017-07-25T22:56:50.152Z,16.97
2017-07-25T22:59:21.603Z,16.99
2017-07-25T23:01:53.317Z,16.99
2017-07-25T23:04:24.770Z,16.97
2017-07-25T23:06:56.415Z,16.96
2017-07-25T23:09:28.323Z,16.93
2017-07-25T23:11:59.795Z,16.97
2017-07-25T23:14:31.317Z,16.97
2017-07-25T23:17:03.200Z,17.01
2017-07-25T23:19:34.745Z,16.99
2017-07-25T23:22:08.651Z,16.95
2017-07-25T23:24:40.106Z,16.98
2017-07-25T23:27:13.451Z,17.00
2017-07-25T23:29:45.020Z,17.01
2017-07-25T23:32:19.871Z,16.95
2017-07-25T23:34:51.426Z,16.92
2017-07-25T23:37:22.867Z,16.89
2017-07-25T23:39:54.314Z,16.91
2017-07-25T23:42:25.733Z,16.96
2017-07-25T23:44:57.323Z,17.00
2017-07-25T23:47:35.561Z,16.98
2017-07-25T23:50:08.065Z,16.97
2017-07-25T23:52:39.465Z,16.99
2017-07-25T23:55:10.916Z,16.97
2017-07-25T23:57:42.441Z,16.99
